createdAt,value
2018-11-20T00:00:05.601Z,1010.78
2018-11-20T00:01:05.789Z,1010.84
2018-11-20T00:02:05.641Z,1010.87
2018-11-20T00:03:05.996Z,1010.82
2018-11-20T00:04:05.544Z,1010.86
2018-11-20T00:05:05.817Z,1010.88
2018-11-20T00:06:05.712Z,1010.81
2018-11-20T00:07:05.671Z,1010.86
2018-11-20T00:08:05.727Z,1010.88
2018-11-20T00:09:05.758Z,1010.81
2018-11-20T00:10:05.660Z,1010.79
2018-11-20T00:11:05.914Z,1010.78
2018-11-20T00:12:05.742Z,1010.8
2018-11-20T00:13:05.685Z,1010.81
2018-11-20T00:14:05.741Z,1010.75
2018-11-20T00:15:05.930Z,1010.71
2018-11-20T00:16:05.573Z,1010.85
2018-11-20T00:17:05.789Z,1010.7
2018-11-20T00:18:05.681Z,1010.74
2018-11-20T00:19:05.710Z,1010.79
2018-11-20T00:20:06.038Z,1010.73
2018-11-20T00:21:05.953Z,1010.73
2018-11-20T00:22:05.852Z,1010.75
2018-11-20T00:23:05.881Z,1010.71
2018-11-20T00:24:05.622Z,1010.68
2018-11-20T00:25:06.162Z,1010.74
2018-11-20T00:26:05.647Z,1010.68
2018-11-20T00:27:05.938Z,1010.75
2018-11-20T00:28:05.993Z,1010.66
2018-11-20T00:29:05.796Z,1010.74
2018-11-20T00:30:05.906Z,1010.62
2018-11-20T00:31:05.554Z,1010.64
2018-11-20T00:32:05.599Z,1010.63
2018-11-20T00:33:05.923Z,1010.64
2018-11-20T00:34:06.018Z,1010.69
2018-11-20T00:35:05.898Z,1010.66
2018-11-20T00:36:05.525Z,1010.59
2018-11-20T00:37:05.615Z,1010.62
2018-11-20T00:38:05.548Z,1010.6
2018-11-20T00:39:05.781Z,1010.61
2018-11-20T00:40:05.762Z,1010.58
2018-11-20T00:41:06.234Z,1010.55
2018-11-20T00:42:05.690Z,1010.62
2018-11-20T00:43:05.708Z,1010.54
2018-11-20T00:44:05.604Z,1010.63
2018-11-20T00:45:05.496Z,1010.59
2018-11-20T00:46:05.810Z,1010.53
2018-11-20T00:47:05.420Z,1010.58
2018-11-20T00:48:05.663Z,1010.52
2018-11-20T00:49:05.740Z,1010.58
2018-11-20T00:50:05.720Z,1010.54
2018-11-20T00:51:05.817Z,1010.53
2018-11-20T00:52:05.396Z,1010.55
2018-11-20T00:53:05.630Z,1010.59
2018-11-20T00:54:05.737Z,1010.53
2018-11-20T00:55:05.664Z,1010.5
2018-11-20T00:56:05.609Z,1010.51
2018-11-20T00:57:05.717Z,1010.58
2018-11-20T00:58:05.701Z,1010.39
2018-11-20T00:59:05.637Z,1010.51
2018-11-20T01:00:05.681Z,1010.47
2018-11-20T01:01:06.665Z,1010.48
2018-11-20T01:02:05.543Z,1010.56
2018-11-20T01:03:05.690Z,1010.45
2018-11-20T01:04:06.032Z,1010.41
2018-11-20T01:05:05.487Z,1010.47
2018-11-20T01:06:05.403Z,1010.45
2018-11-20T01:07:05.813Z,1010.4
2018-11-20T01:08:05.969Z,1010.45
2018-11-20T01:09:06.073Z,1010.37
2018-11-20T01:10:05.619Z,1010.44
2018-11-20T01:11:05.645Z,1010.39
2018-11-20T01:12:05.584Z,1010.45
2018-11-20T01:13:06.004Z,1010.42
2018-11-20T01:14:05.697Z,1010.43
2018-11-20T01:15:05.920Z,1010.39
2018-11-20T01:16:05.578Z,1010.36
2018-11-20T01:17:05.408Z,1010.39
2018-11-20T01:18:05.694Z,1010.39
2018-11-20T01:19:05.737Z,1010.41
2018-11-20T01:20:05.717Z,1010.34
2018-11-20T01:21:05.608Z,1010.43
2018-11-20T01:22:05.807Z,1010.45
2018-11-20T01:23:05.754Z,1010.44
2018-11-20T01:24:05.755Z,1010.36
2018-11-20T01:25:05.578Z,1010.41
2018-11-20T01:26:05.747Z,1010.5
2018-11-20T01:27:05.637Z,1010.41
2018-11-20T01:28:06.192Z,1010.41
2018-11-20T01:29:05.725Z,1010.42
2018-11-20T01:30:05.517Z,1010.4
2018-11-20T01:31:05.790Z,1010.39
2018-11-20T01:32:05.588Z,1010.33
2018-11-20T01:33:05.626Z,1010.27
2018-11-20T01:34:05.668Z,1010.3
2018-11-20T01:35:05.834Z,1010.3
2018-11-20T01:36:05.646Z,1010.26
2018-11-20T01:37:05.786Z,1010.19
2018-11-20T01:38:05.678Z,1010.26
2018-11-20T01:39:06.294Z,1010.22
2018-11-20T01:40:05.619Z,1010.14
2018-11-20T01:41:05.648Z,1010.08
2018-11-20T01:42:05.770Z,1010.09
2018-11-20T01:43:05.449Z,1010.04
2018-11-20T01:44:06.486Z,1009.95
2018-11-20T01:45:05.786Z,1009.97
2018-11-20T01:46:05.809Z,1009.99
2018-11-20T01:47:06.047Z,1009.96
2018-11-20T01:48:05.566Z,1009.93
2018-11-20T01:49:05.580Z,1009.98
2018-11-20T01:50:05.593Z,1009.99
2018-11-20T01:51:05.855Z,1009.92
2018-11-20T01:52:05.739Z,1009.96
2018-11-20T01:53:05.526Z,1009.94
2018-11-20T01:54:05.683Z,1009.92
2018-11-20T01:55:05.797Z,1009.87
2018-11-20T01:56:06.067Z,1009.88
2018-11-20T01:57:05.664Z,1009.85
2018-11-20T01:58:05.598Z,1009.83
2018-11-20T01:59:05.403Z,1009.81
2018-11-20T02:00:05.607Z,1009.78
2018-11-20T02:01:05.641Z,1009.79
2018-11-20T02:02:05.644Z,1009.74
2018-11-20T02:03:06.056Z,1009.75
2018-11-20T02:04:05.815Z,1009.77
2018-11-20T02:05:05.545Z,1009.75
2018-11-20T02:06:05.464Z,1009.72
2018-11-20T02:07:05.467Z,1009.73
2018-11-20T02:08:05.722Z,1009.75
2018-11-20T02:09:05.465Z,1009.76
2018-11-20T02:10:05.588Z,1009.73
2018-11-20T02:11:05.340Z,1009.79
2018-11-20T02:12:05.648Z,1009.76
2018-11-20T02:13:05.798Z,1009.77
2018-11-20T02:14:05.680Z,1009.81
2018-11-20T02:15:05.422Z,1009.73
2018-11-20T02:16:06.145Z,1009.72
2018-11-20T02:17:05.729Z,1009.75
2018-11-20T02:18:05.605Z,1009.79
2018-11-20T02:19:05.416Z,1009.75
2018-11-20T02:20:05.665Z,1009.75
2018-11-20T02:21:05.837Z,1009.78
2018-11-20T02:22:05.453Z,1009.79
2018-11-20T02:23:05.630Z,1009.79
2018-11-20T02:24:05.418Z,1009.84
2018-11-20T02:25:05.684Z,1009.78
2018-11-20T02:26:05.494Z,1009.78
2018-11-20T02:27:05.752Z,1009.83
2018-11-20T02:28:05.454Z,1009.86
2018-11-20T02:29:05.564Z,1009.84
2018-11-20T02:30:05.754Z,1009.84
2018-11-20T02:31:05.929Z,1009.84
2018-11-20T02:32:05.650Z,1009.81
2018-11-20T02:33:05.368Z,1009.83
2018-11-20T02:34:05.759Z,1009.82
2018-11-20T02:35:05.501Z,1009.84
2018-11-20T02:36:05.618Z,1009.84
2018-11-20T02:37:05.772Z,1009.77
2018-11-20T02:38:05.748Z,1009.8
2018-11-20T02:39:05.577Z,1009.77
2018-11-20T02:40:05.690Z,1009.74
2018-11-20T02:41:05.560Z,1009.82
2018-11-20T02:42:05.677Z,1009.75
2018-11-20T02:43:05.609Z,1009.73
2018-11-20T02:44:05.588Z,1009.72
2018-11-20T02:45:05.696Z,1009.65
2018-11-20T02:46:05.447Z,1009.6
2018-11-20T02:47:05.730Z,1009.59
2018-11-20T02:48:05.610Z,1009.55
2018-11-20T02:49:05.560Z,1009.57
2018-11-20T02:50:05.956Z,1009.54
2018-11-20T02:51:05.398Z,1009.54
2018-11-20T02:52:05.549Z,1009.51
2018-11-20T02:53:05.955Z,1009.55
2018-11-20T02:54:05.785Z,1009.56
2018-11-20T02:55:05.913Z,1009.47
2018-11-20T02:56:05.978Z,1009.47
2018-11-20T02:57:05.639Z,1009.42
2018-11-20T02:58:05.735Z,1009.45
2018-11-20T02:59:05.719Z,1009.4
2018-11-20T03:00:05.460Z,1009.35
2018-11-20T03:01:05.715Z,1009.4
2018-11-20T03:02:05.453Z,1009.35
2018-11-20T03:03:05.710Z,1009.27
2018-11-20T03:04:05.379Z,1009.33
2018-11-20T03:05:05.474Z,1009.31
2018-11-20T03:06:05.734Z,1009.31
2018-11-20T03:07:05.520Z,1009.32
2018-11-20T03:08:06.093Z,1009.36
2018-11-20T03:09:05.465Z,1009.33
2018-11-20T03:10:05.577Z,1009.38
2018-11-20T03:11:05.683Z,1009.33
2018-11-20T03:12:05.817Z,1009.39
2018-11-20T03:13:05.345Z,1009.37
2018-11-20T03:14:05.469Z,1009.38
2018-11-20T03:15:05.569Z,1009.39
2018-11-20T03:16:05.589Z,1009.38
2018-11-20T03:17:05.594Z,1009.41
2018-11-20T03:18:05.455Z,1009.35
2018-11-20T03:19:05.517Z,1009.39
2018-11-20T03:20:05.627Z,1009.34
2018-11-20T03:21:05.529Z,1009.38
2018-11-20T03:22:06.087Z,1009.33
2018-11-20T03:23:05.762Z,1009.35
2018-11-20T03:24:05.768Z,1009.38
2018-11-20T03:25:05.982Z,1009.32
2018-11-20T03:26:05.748Z,1009.36
2018-11-20T03:27:06.256Z,1009.35
2018-11-20T03:28:05.859Z,1009.31
2018-11-20T03:29:05.817Z,1009.31
2018-11-20T03:30:05.410Z,1009.28
2018-11-20T03:31:05.752Z,1009.25
2018-11-20T03:32:05.730Z,1009.2
2018-11-20T03:33:05.732Z,1009.27
2018-11-20T03:34:05.391Z,1009.29
2018-11-20T03:35:05.587Z,1009.28
2018-11-20T03:36:06.318Z,1009.3
2018-11-20T03:37:05.796Z,1009.31
2018-11-20T03:38:05.937Z,1009.29
2018-11-20T03:39:05.470Z,1009.26
2018-11-20T03:40:05.614Z,1009.2
2018-11-20T03:41:06.291Z,1009.23
2018-11-20T03:42:05.332Z,1009.26
2018-11-20T03:43:05.378Z,1009.19
2018-11-20T03:44:05.459Z,1009.23
2018-11-20T03:45:05.667Z,1009.2
2018-11-20T03:46:05.676Z,1009.22
2018-11-20T03:47:05.642Z,1009.22
2018-11-20T03:48:06.305Z,1009.19
2018-11-20T03:49:05.791Z,1009.2
2018-11-20T03:50:05.763Z,1009.19
2018-11-20T03:51:05.629Z,1009.16
2018-11-20T03:52:05.769Z,1009.19
2018-11-20T03:53:05.328Z,1009.23
2018-11-20T03:54:05.676Z,1009.23
2018-11-20T03:55:05.329Z,1009.21
2018-11-20T03:56:05.646Z,1009.21
2018-11-20T03:57:06.099Z,1009.28
2018-11-20T03:58:05.743Z,1009.22
2018-11-20T03:59:05.333Z,1009.3
2018-11-20T04:00:05.618Z,1009.27
2018-11-20T04:01:05.427Z,1009.25
2018-11-20T04:02:05.471Z,1009.32
2018-11-20T04:03:05.609Z,1009.3
2018-11-20T04:04:05.536Z,1009.26
2018-11-20T04:05:05.715Z,1009.29
2018-11-20T04:06:05.373Z,1009.22
2018-11-20T04:07:05.580Z,1009.29
2018-11-20T04:08:05.382Z,1009.26
2018-11-20T04:09:05.685Z,1009.29
2018-11-20T04:10:05.367Z,1009.3
2018-11-20T04:11:05.559Z,1009.28
2018-11-20T04:12:05.567Z,1009.2
2018-11-20T04:13:05.748Z,1009.28
2018-11-20T04:14:05.877Z,1009.22
2018-11-20T04:15:05.742Z,1009.24
2018-11-20T04:16:05.757Z,1009.19
2018-11-20T04:17:05.630Z,1009.21
2018-11-20T04:18:05.654Z,1009.23
2018-11-20T04:19:05.384Z,1009.27
2018-11-20T04:20:05.600Z,1009.2
2018-11-20T04:21:05.673Z,1009.21
2018-11-20T04:22:05.339Z,1009.24
2018-11-20T04:23:05.481Z,1009.21
2018-11-20T04:24:05.330Z,1009.18
2018-11-20T04:25:05.942Z,1009.16
2018-11-20T04:26:05.353Z,1009.11
2018-11-20T04:27:05.713Z,1009.09
2018-11-20T04:28:05.719Z,1009.09
2018-11-20T04:29:05.460Z,1009.07
2018-11-20T04:30:05.646Z,1009.05
2018-11-20T04:31:05.660Z,1009.04
2018-11-20T04:32:05.562Z,1009.03
2018-11-20T04:33:05.781Z,1009.02
2018-11-20T04:34:05.493Z,1009.07
2018-11-20T04:35:05.315Z,1009.07
2018-11-20T04:36:05.776Z,1009.06
2018-11-20T04:37:05.678Z,1009.02
2018-11-20T04:38:05.557Z,1009.01
2018-11-20T04:39:05.549Z,1009.01
2018-11-20T04:40:05.747Z,1009.04
2018-11-20T04:41:05.903Z,1009.06
2018-11-20T04:42:05.345Z,1009.1
2018-11-20T04:43:05.766Z,1009.12
2018-11-20T04:44:05.346Z,1009.07
2018-11-20T04:45:05.423Z,1009.06
2018-11-20T04:46:05.680Z,1009.05
2018-11-20T04:47:05.434Z,1009.05
2018-11-20T04:48:05.579Z,1009.01
2018-11-20T04:49:05.358Z,1009.06
2018-11-20T04:50:06.135Z,1009.02
2018-11-20T04:51:05.494Z,1009.01
2018-11-20T04:52:05.918Z,1009
2018-11-20T04:53:05.864Z,1008.99
2018-11-20T04:54:06.242Z,1009.03
2018-11-20T04:55:05.555Z,1009
2018-11-20T04:56:05.298Z,1009.02
2018-11-20T04:57:05.756Z,1009.05
2018-11-20T04:58:05.955Z,1008.96
2018-11-20T04:59:05.569Z,1008.95
2018-11-20T05:00:05.465Z,1008.98
2018-11-20T05:01:05.903Z,1008.96
2018-11-20T05:02:05.393Z,1009.01
2018-11-20T05:03:05.399Z,1008.97
2018-11-20T05:04:05.706Z,1008.95
2018-11-20T05:05:05.882Z,1008.93
2018-11-20T05:06:05.654Z,1008.86
2018-11-20T05:07:05.294Z,1008.93
2018-11-20T05:08:05.750Z,1008.83
2018-11-20T05:09:05.792Z,1008.94
2018-11-20T05:10:05.740Z,1008.9
2018-11-20T05:11:05.725Z,1008.97
2018-11-20T05:12:05.493Z,1008.95
2018-11-20T05:13:05.561Z,1008.89
2018-11-20T05:14:05.357Z,1008.95
2018-11-20T05:15:05.649Z,1008.95
2018-11-20T05:16:05.837Z,1008.94
2018-11-20T05:17:05.534Z,1008.91
2018-11-20T05:18:05.787Z,1008.91
2018-11-20T05:19:05.499Z,1008.93
2018-11-20T05:20:05.356Z,1008.91
2018-11-20T05:21:05.325Z,1008.92
2018-11-20T05:22:05.948Z,1008.9
2018-11-20T05:23:05.625Z,1008.97
2018-11-20T05:24:05.603Z,1008.91
2018-11-20T05:25:05.494Z,1008.97
2018-11-20T05:26:05.525Z,1008.9
2018-11-20T05:27:05.383Z,1008.94
2018-11-20T05:28:06.223Z,1008.93
2018-11-20T05:29:05.656Z,1008.91
2018-11-20T05:30:05.397Z,1008.96
2018-11-20T05:31:06.007Z,1008.96
2018-11-20T05:32:05.412Z,1008.93
2018-11-20T05:33:05.412Z,1008.91
2018-11-20T05:34:05.493Z,1008.95
2018-11-20T05:35:05.529Z,1008.9
2018-11-20T05:36:05.700Z,1008.93
2018-11-20T05:37:05.418Z,1008.93
2018-11-20T05:38:05.476Z,1008.97
2018-11-20T05:39:05.346Z,1008.92
2018-11-20T05:40:05.929Z,1008.9
2018-11-20T05:41:05.774Z,1008.92
2018-11-20T05:42:05.561Z,1008.92
2018-11-20T05:43:05.472Z,1008.92
2018-11-20T05:44:05.423Z,1008.91
2018-11-20T05:45:05.807Z,1008.94
2018-11-20T05:46:05.313Z,1008.92
2018-11-20T05:47:05.559Z,1008.96
2018-11-20T05:48:05.378Z,1008.95
2018-11-20T05:49:05.839Z,1008.98
2018-11-20T05:50:05.305Z,1008.98
2018-11-20T05:51:05.810Z,1008.99
2018-11-20T05:52:05.406Z,1009.01
2018-11-20T05:53:05.786Z,1009.01
2018-11-20T05:54:05.585Z,1008.97
2018-11-20T05:55:06.020Z,1008.97
2018-11-20T05:56:05.581Z,1008.98
2018-11-20T05:57:05.646Z,1008.98
2018-11-20T05:58:06.295Z,1009.04
2018-11-20T05:59:05.442Z,1008.94
2018-11-20T06:00:05.393Z,1008.95
2018-11-20T06:01:05.668Z,1008.97
2018-11-20T06:02:05.437Z,1008.99
2018-11-20T06:03:05.678Z,1008.89
2018-11-20T06:04:05.371Z,1008.99
2018-11-20T06:05:05.456Z,1008.94
2018-11-20T06:06:05.937Z,1008.91
2018-11-20T06:07:05.848Z,1008.87
2018-11-20T06:08:05.611Z,1008.87
2018-11-20T06:09:05.363Z,1008.94
2018-11-20T06:10:05.492Z,1009.01
2018-11-20T06:11:05.367Z,1008.97
2018-11-20T06:12:05.911Z,1008.96
2018-11-20T06:13:05.331Z,1008.98
2018-11-20T06:14:05.787Z,1008.98
2018-11-20T06:15:05.302Z,1008.98
2018-11-20T06:16:05.503Z,1008.94
2018-11-20T06:17:05.315Z,1008.95
2018-11-20T06:18:05.698Z,1008.91
2018-11-20T06:19:06.334Z,1008.87
2018-11-20T06:20:05.456Z,1008.84
2018-11-20T06:21:05.501Z,1008.92
2018-11-20T06:22:05.309Z,1008.92
2018-11-20T06:23:05.510Z,1008.93
2018-11-20T06:24:05.363Z,1008.96
2018-11-20T06:25:05.784Z,1008.98
2018-11-20T06:26:05.537Z,1008.9
2018-11-20T06:27:05.744Z,1008.97
2018-11-20T06:28:05.465Z,1009.02
2018-11-20T06:29:05.992Z,1008.99
2018-11-20T06:30:05.741Z,1008.95
2018-11-20T06:31:05.370Z,1008.96
2018-11-20T06:32:05.493Z,1008.96
2018-11-20T06:33:05.806Z,1009.02
2018-11-20T06:34:05.964Z,1009.02
2018-11-20T06:35:06.390Z,1009.05
2018-11-20T06:36:05.441Z,1009.06
2018-11-20T06:37:05.786Z,1009.01
2018-11-20T06:38:05.866Z,1009
2018-11-20T06:39:05.788Z,1009.08
2018-11-20T06:40:06.304Z,1008.96
2018-11-20T06:41:05.931Z,1009
2018-11-20T06:42:05.994Z,1009.03
2018-11-20T06:43:05.494Z,1009.06
2018-11-20T06:44:05.735Z,1009.04
2018-11-20T06:45:05.820Z,1009.04
2018-11-20T06:46:05.555Z,1009.03
2018-11-20T06:47:05.997Z,1009.06
2018-11-20T06:48:05.388Z,1009.07
2018-11-20T06:49:05.554Z,1009.05
2018-11-20T06:50:05.274Z,1009.16
2018-11-20T06:51:05.483Z,1009.09
2018-11-20T06:52:05.440Z,1009.11
2018-11-20T06:53:06.603Z,1009.11
2018-11-20T06:54:05.471Z,1009.07
2018-11-20T06:55:05.479Z,1009.11
2018-11-20T06:56:05.405Z,1009.1
2018-11-20T06:57:05.488Z,1009.11
2018-11-20T06:58:05.518Z,1009.13
2018-11-20T06:59:05.506Z,1009.15
2018-11-20T07:00:05.678Z,1009.1
2018-11-20T07:01:05.743Z,1009.09
2018-11-20T07:02:05.326Z,1009.14
2018-11-20T07:03:05.299Z,1009.16
2018-11-20T07:04:05.290Z,1009.14
2018-11-20T07:05:05.472Z,1009.17
2018-11-20T07:06:05.275Z,1009.18
2018-11-20T07:07:05.731Z,1009.16
2018-11-20T07:08:06.457Z,1009.1
2018-11-20T07:09:05.345Z,1009.1
2018-11-20T07:10:05.384Z,1009.18
2018-11-20T07:11:06.071Z,1009.14
2018-11-20T07:12:05.473Z,1009.12
2018-11-20T07:13:05.447Z,1009.16
2018-11-20T07:14:05.229Z,1009.08
2018-11-20T07:15:05.915Z,1009.14
2018-11-20T07:16:07.149Z,1009.1
2018-11-20T07:17:05.282Z,1009.02
2018-11-20T07:18:05.631Z,1009.07
2018-11-20T07:19:05.330Z,1009.09
2018-11-20T07:20:05.540Z,1009.14
2018-11-20T07:21:05.318Z,1009.12
2018-11-20T07:22:06.356Z,1009.12
2018-11-20T07:23:05.254Z,1009.06
2018-11-20T07:24:05.508Z,1009.06
2018-11-20T07:25:05.809Z,1009.13
2018-11-20T07:26:05.816Z,1009.07
2018-11-20T07:27:05.514Z,1009.11
2018-11-20T07:28:05.714Z,1009.15
2018-11-20T07:29:05.444Z,1009.14
2018-11-20T07:30:05.932Z,1009.13
2018-11-20T07:31:06.141Z,1009.14
2018-11-20T07:32:05.738Z,1009.19
2018-11-20T07:33:05.382Z,1009.19
2018-11-20T07:34:05.969Z,1009.18
2018-11-20T07:35:05.369Z,1009.22
2018-11-20T07:36:05.778Z,1009.2
2018-11-20T07:37:06.511Z,1009.24
2018-11-20T07:38:05.429Z,1009.18
2018-11-20T07:39:05.657Z,1009.19
2018-11-20T07:40:05.512Z,1009.23
2018-11-20T07:41:05.251Z,1009.24
2018-11-20T07:42:05.368Z,1009.26
2018-11-20T07:43:05.516Z,1009.26
2018-11-20T07:44:05.813Z,1009.13
2018-11-20T07:45:05.652Z,1009.26
2018-11-20T07:46:05.854Z,1009.19
2018-11-20T07:47:05.321Z,1009.2
2018-11-20T07:48:05.453Z,1009.22
2018-11-20T07:49:05.254Z,1009.18
2018-11-20T07:50:05.422Z,1009.17
2018-11-20T07:51:05.609Z,1009.22
2018-11-20T07:52:05.436Z,1009.17
2018-11-20T07:53:05.676Z,1009.14
2018-11-20T07:54:05.876Z,1009.13
2018-11-20T07:55:05.609Z,1009.1
2018-11-20T07:56:05.984Z,1009.06
2018-11-20T07:57:06.099Z,1009.11
2018-11-20T07:58:05.448Z,1009.08
2018-11-20T07:59:05.312Z,1009.06
2018-11-20T08:00:05.637Z,1009.02
2018-11-20T08:01:05.375Z,1008.97
2018-11-20T08:02:06.154Z,1008.97
2018-11-20T08:03:05.692Z,1008.93
2018-11-20T08:04:05.777Z,1008.97
2018-11-20T08:05:05.379Z,1008.94
2018-11-20T08:06:05.780Z,1008.98
2018-11-20T08:07:05.281Z,1008.96
2018-11-20T08:08:05.463Z,1008.89
2018-11-20T08:09:05.820Z,1008.94
2018-11-20T08:10:05.742Z,1008.94
2018-11-20T08:11:05.549Z,1008.89
2018-11-20T08:12:05.722Z,1008.89
2018-11-20T08:13:05.429Z,1008.89
2018-11-20T08:14:05.357Z,1008.95
2018-11-20T08:15:05.725Z,1008.92
2018-11-20T08:16:06.223Z,1008.94
2018-11-20T08:17:05.396Z,1008.95
2018-11-20T08:18:05.753Z,1008.96
2018-11-20T08:19:05.308Z,1008.92
2018-11-20T08:20:05.455Z,1008.91
2018-11-20T08:21:05.215Z,1008.88
2018-11-20T08:22:05.634Z,1008.96
2018-11-20T08:23:05.780Z,1008.96
2018-11-20T08:24:05.337Z,1008.94
2018-11-20T08:25:06.016Z,1008.99
2018-11-20T08:26:06.298Z,1009.01
2018-11-20T08:27:05.803Z,1008.95
2018-11-20T08:28:05.249Z,1008.92
2018-11-20T08:29:05.633Z,1008.96
2018-11-20T08:30:05.443Z,1008.96
2018-11-20T08:31:05.742Z,1009
2018-11-20T08:32:05.501Z,1008.92
2018-11-20T08:33:05.343Z,1008.97
2018-11-20T08:34:05.879Z,1008.97
2018-11-20T08:35:06.191Z,1008.96
2018-11-20T08:36:05.360Z,1008.88
2018-11-20T08:37:05.854Z,1008.94
2018-11-20T08:38:05.235Z,1008.91
2018-11-20T08:39:05.394Z,1008.93
2018-11-20T08:40:05.346Z,1008.92
2018-11-20T08:41:05.349Z,1008.94
2018-11-20T08:42:05.476Z,1008.94
2018-11-20T08:43:05.411Z,1008.92
2018-11-20T08:44:05.356Z,1008.94
2018-11-20T08:45:05.247Z,1008.99
2018-11-20T08:46:05.461Z,1008.97
2018-11-20T08:47:05.170Z,1008.93
2018-11-20T08:48:05.550Z,1008.88
2018-11-20T08:49:05.454Z,1008.89
2018-11-20T08:50:05.281Z,1008.86
2018-11-20T08:51:05.296Z,1008.89
2018-11-20T08:52:05.225Z,1008.87
2018-11-20T08:53:05.649Z,1008.89
2018-11-20T08:54:05.480Z,1008.87
2018-11-20T08:55:05.321Z,1008.85
2018-11-20T08:56:05.957Z,1008.81
2018-11-20T08:57:05.343Z,1008.81
2018-11-20T08:58:05.866Z,1008.84
2018-11-20T08:59:05.767Z,1008.82
2018-11-20T09:00:05.474Z,1008.82
2018-11-20T09:01:05.252Z,1008.78
2018-11-20T09:02:05.434Z,1008.82
2018-11-20T09:03:06.001Z,1008.72
2018-11-20T09:04:05.444Z,1008.76
2018-11-20T09:05:05.679Z,1008.75
2018-11-20T09:06:05.186Z,1008.74
2018-11-20T09:07:05.549Z,1008.75
2018-11-20T09:08:05.223Z,1008.74
2018-11-20T09:09:05.318Z,1008.71
2018-11-20T09:10:05.912Z,1008.7
2018-11-20T09:11:05.291Z,1008.74
2018-11-20T09:12:05.429Z,1008.76
2018-11-20T09:13:05.224Z,1008.8
2018-11-20T09:14:05.361Z,1008.83
2018-11-20T09:15:05.550Z,1008.75
2018-11-20T09:16:05.632Z,1008.85
2018-11-20T09:17:05.773Z,1008.9
2018-11-20T09:18:06.250Z,1008.84
2018-11-20T09:19:05.699Z,1008.86
2018-11-20T09:20:05.656Z,1008.87
2018-11-20T09:21:06.067Z,1008.87
2018-11-20T09:22:05.218Z,1008.93
2018-11-20T09:23:05.304Z,1008.9
2018-11-20T09:24:05.821Z,1008.91
2018-11-20T09:25:05.328Z,1008.9
2018-11-20T09:26:05.402Z,1008.89
2018-11-20T09:27:05.240Z,1008.94
2018-11-20T09:28:06.326Z,1008.98
2018-11-20T09:29:05.745Z,1009
2018-11-20T09:30:05.562Z,1008.93
2018-11-20T09:31:05.927Z,1008.93
2018-11-20T09:32:05.374Z,1008.97
2018-11-20T09:33:05.211Z,1009.04
2018-11-20T09:34:05.377Z,1008.97
2018-11-20T09:35:06.081Z,1008.99
2018-11-20T09:36:05.796Z,1008.91
2018-11-20T09:37:05.445Z,1008.93
2018-11-20T09:38:05.834Z,1008.93
2018-11-20T09:39:05.218Z,1008.9
2018-11-20T09:40:05.330Z,1008.9
2018-11-20T09:41:05.513Z,1008.88
2018-11-20T09:42:05.326Z,1008.84
2018-11-20T09:43:05.802Z,1008.84
2018-11-20T09:44:05.626Z,1008.88
2018-11-20T09:45:05.470Z,1008.87
2018-11-20T09:46:05.310Z,1008.88
2018-11-20T09:47:06.199Z,1008.87
2018-11-20T09:48:05.588Z,1008.87
2018-11-20T09:49:05.717Z,1008.84
2018-11-20T09:50:05.912Z,1008.88
2018-11-20T09:51:05.606Z,1008.86
2018-11-20T09:52:05.902Z,1008.86
2018-11-20T09:53:05.383Z,1008.87
2018-11-20T09:54:05.353Z,1008.87
2018-11-20T09:55:05.260Z,1008.9
2018-11-20T09:56:05.637Z,1008.84
2018-11-20T09:57:05.775Z,1008.89
2018-11-20T09:58:05.293Z,1008.86
2018-11-20T09:59:06.040Z,1008.89
2018-11-20T10:00:05.513Z,1008.88
2018-11-20T10:01:05.689Z,1008.91
2018-11-20T10:02:05.484Z,1008.9
2018-11-20T10:03:06.180Z,1008.99
2018-11-20T10:04:05.457Z,1008.99
2018-11-20T10:05:05.581Z,1008.94
2018-11-20T10:06:05.498Z,1008.96
2018-11-20T10:07:05.809Z,1008.93
2018-11-20T10:08:05.824Z,1008.9
2018-11-20T10:09:05.232Z,1008.92
2018-11-20T10:10:05.433Z,1008.83
2018-11-20T10:11:05.232Z,1008.8
2018-11-20T10:12:05.272Z,1008.8
2018-11-20T10:13:05.273Z,1008.81
2018-11-20T10:14:06.354Z,1008.78
2018-11-20T10:15:05.931Z,1008.77
2018-11-20T10:16:05.216Z,1008.79
2018-11-20T10:17:05.357Z,1008.69
2018-11-20T10:18:05.195Z,1008.72
2018-11-20T10:19:05.719Z,1008.69
2018-11-20T10:20:05.176Z,1008.66
2018-11-20T10:21:05.265Z,1008.64
2018-11-20T10:22:05.807Z,1008.56
2018-11-20T10:23:05.192Z,1008.6
2018-11-20T10:24:05.219Z,1008.55
2018-11-20T10:25:06.139Z,1008.6
2018-11-20T10:26:06.211Z,1008.59
2018-11-20T10:27:05.777Z,1008.52
2018-11-20T10:28:05.479Z,1008.55
2018-11-20T10:29:05.507Z,1008.53
2018-11-20T10:30:05.211Z,1008.56
2018-11-20T10:31:05.660Z,1008.54
2018-11-20T10:32:05.454Z,1008.54
2018-11-20T10:33:05.609Z,1008.53
2018-11-20T10:34:06.075Z,1008.51
2018-11-20T10:35:05.349Z,1008.44
2018-11-20T10:36:05.386Z,1008.46
2018-11-20T10:37:05.438Z,1008.45
2018-11-20T10:38:05.444Z,1008.44
2018-11-20T10:39:06.137Z,1008.41
2018-11-20T10:40:05.885Z,1008.37
2018-11-20T10:41:05.204Z,1008.43
2018-11-20T10:42:06.352Z,1008.36
2018-11-20T10:43:05.407Z,1008.36
2018-11-20T10:44:05.281Z,1008.41
2018-11-20T10:45:05.780Z,1008.4
2018-11-20T10:46:05.979Z,1008.38
2018-11-20T10:47:05.298Z,1008.32
2018-11-20T10:48:05.484Z,1008.34
2018-11-20T10:49:05.832Z,1008.33
2018-11-20T10:50:06.249Z,1008.32
2018-11-20T10:51:05.809Z,1008.31
2018-11-20T10:52:05.631Z,1008.31
2018-11-20T10:53:05.304Z,1008.27
2018-11-20T10:54:05.447Z,1008.27
2018-11-20T10:55:05.355Z,1008.31
2018-11-20T10:56:05.217Z,1008.3
2018-11-20T10:57:05.674Z,1008.31
2018-11-20T10:58:05.316Z,1008.29
2018-11-20T10:59:05.654Z,1008.3
2018-11-20T11:00:05.328Z,1008.32
2018-11-20T11:01:05.715Z,1008.3
2018-11-20T11:02:05.207Z,1008.32
2018-11-20T11:03:05.349Z,1008.31
2018-11-20T11:04:05.468Z,1008.26
2018-11-20T11:05:05.809Z,1008.28
2018-11-20T11:06:05.702Z,1008.29
2018-11-20T11:07:06.276Z,1008.27
2018-11-20T11:08:05.844Z,1008.27
2018-11-20T11:09:05.420Z,1008.3
2018-11-20T11:10:05.687Z,1008.26
2018-11-20T11:11:05.355Z,1008.28
2018-11-20T11:12:06.005Z,1008.3
2018-11-20T11:13:05.342Z,1008.27
2018-11-20T11:14:06.132Z,1008.31
2018-11-20T11:15:05.721Z,1008.35
2018-11-20T11:16:05.311Z,1008.34
2018-11-20T11:17:05.356Z,1008.34
2018-11-20T11:18:05.724Z,1008.33
2018-11-20T11:19:05.289Z,1008.31
2018-11-20T11:20:05.718Z,1008.37
2018-11-20T11:21:05.990Z,1008.34
2018-11-20T11:22:05.657Z,1008.39
2018-11-20T11:23:05.277Z,1008.35
2018-11-20T11:24:05.309Z,1008.34
2018-11-20T11:25:05.690Z,1008.4
2018-11-20T11:26:05.246Z,1008.33
2018-11-20T11:27:05.682Z,1008.33
2018-11-20T11:28:05.838Z,1008.32
2018-11-20T11:29:05.469Z,1008.28
2018-11-20T11:30:05.172Z,1008.28
2018-11-20T11:31:05.717Z,1008.33
2018-11-20T11:32:05.493Z,1008.4
2018-11-20T11:33:06.089Z,1008.45
2018-11-20T11:34:05.503Z,1008.48
2018-11-20T11:35:05.608Z,1008.51
2018-11-20T11:36:05.645Z,1008.44
2018-11-20T11:37:05.771Z,1008.52
2018-11-20T11:38:05.375Z,1008.47
2018-11-20T11:39:05.253Z,1008.47
2018-11-20T11:40:05.465Z,1008.51
2018-11-20T11:41:05.340Z,1008.52
2018-11-20T11:42:05.344Z,1008.59
2018-11-20T11:43:05.707Z,1008.64
2018-11-20T11:44:05.173Z,1008.58
2018-11-20T11:45:05.450Z,1008.6
2018-11-20T11:46:05.614Z,1008.63
2018-11-20T11:47:05.449Z,1008.64
2018-11-20T11:48:05.211Z,1008.64
2018-11-20T11:49:05.551Z,1008.59
2018-11-20T11:50:05.246Z,1008.65
2018-11-20T11:51:05.293Z,1008.63
2018-11-20T11:52:05.191Z,1008.62
2018-11-20T11:53:05.141Z,1008.63
2018-11-20T11:54:05.752Z,1008.59
2018-11-20T11:55:05.478Z,1008.61
2018-11-20T11:56:05.675Z,1008.6
2018-11-20T11:57:05.334Z,1008.63
2018-11-20T11:58:05.468Z,1008.62
2018-11-20T11:59:05.595Z,1008.65
2018-11-20T12:00:05.713Z,1008.61
2018-11-20T12:01:05.362Z,1008.65
2018-11-20T12:05:05.233Z,1008.59
2018-11-20T12:06:05.321Z,1008.56
2018-11-20T12:07:05.156Z,1008.58
2018-11-20T12:08:05.407Z,1008.57
2018-11-20T12:09:05.774Z,1008.56
2018-11-20T12:10:05.239Z,1008.51
2018-11-20T12:11:05.424Z,1008.57